Time;durP1;ratioP1;P1;durP2;ratioP2;P2;SDS_P1;SDS_P2;PMS_P1;PMS_P2;Temp;Humidity;BMP_temperature;BMP_pressure;BME280_temperature;BME280_humidity;BME280_pressure;Samples;Min_cycle;Max_cycle;Signal;HPM_P1;HPM_P2
2023/09/09 00:00:11;;;;;;;;;;;;;;;;;;4963748;28;20297;-89
2023/09/09 00:02:37;;;;;;;;;;;;;;;;;;4970541;28;19914;-89
2023/09/09 00:05:03;;;;;;;;;;;;;;;;;;4967677;28;19914;-90
2023/09/09 00:07:28;;;;;;;;;;;;;;;;;;4968840;28;20553;-88
2023/09/09 00:10:03;;;;;;;;;;;;;;;;;;4970566;28;19921;-88
2023/09/09 00:12:29;;;;;;;;;;;;;;;;;;4989338;28;19926;-88
2023/09/09 00:14:57;;;;;;;;;;;;;;;;;;4984395;28;20329;-89
2023/09/09 00:17:25;;;;;;;;;;;;;;;;;;4972459;28;19914;-92
2023/09/09 00:19:51;;;;;;;;;;;;;;;;;;4966546;28;19917;-93
2023/09/09 00:22:17;;;;;;;;;;;;;;;;;;4968512;28;19957;-94
2023/09/09 00:24:43;;;;;;;;;;;;;;;;;;4973677;28;19914;-93
2023/09/09 00:27:09;;;;;;;;;;;;;;;;;;4974959;28;19988;-90
2023/09/09 00:29:35;;;;;;;;;;;;;;;;;;4980538;28;20617;-89
2023/09/09 00:32:01;;;;;;;;;;;;;;;;;;4971559;28;19917;-90
2023/09/09 00:34:27;;;;;;;;;;;;;;;;;;4976238;28;19918;-90
2023/09/09 00:36:53;;;;;;;;;;;;;;;;;;4975932;28;19960;-90
2023/09/09 00:39:21;;;;;;;;;;;;;;;;;;4978103;28;19913;-89
2023/09/09 00:41:47;;;;;;;;;;;;;;;;;;4970798;28;19914;-90
2023/09/09 00:44:13;;;;;;;;;;;;;;;;;;4972732;28;20259;-90
2023/09/09 00:46:39;;;;;;;;;;;;;;;;;;4973583;28;19976;-89
2023/09/09 00:49:05;;;;;;;;;;;;;;;;;;4974214;28;19917;-90
2023/09/09 00:51:31;;;;;;;;;;;;;;;;;;4981771;28;19921;-90
2023/09/09 00:53:58;;;;;;;;;;;;;;;;;;4975862;28;19976;-89
2023/09/09 00:56:24;;;;;;;;;;;;;;;;;;4976703;28;19920;-90
2023/09/09 00:58:49;;;;;;;;;;;;;;;;;;4973598;28;20290;-90
2023/09/09 01:01:15;;;;;;;;;;;;;;;;;;4984858;28;20020;-90
2023/09/09 01:03:42;;;;;;;;;;;;;;;;;;4972911;28;20416;-90
2023/09/09 01:06:08;;;;;;;;;;;;;;;;;;4979067;28;19942;-90
2023/09/09 01:08:34;;;;;;;;;;;;;;;;;;4998182;28;19918;-90
2023/09/09 01:10:59;;;;;;;;;;;;;;;;;;4992436;28;19914;-90
2023/09/09 01:13:25;;;;;;;;;;;;;;;;;;4979270;28;19918;-89
2023/09/09 01:15:51;;;;;;;;;;;;;;;;;;4980574;28;19924;-89
2023/09/09 01:18:17;;;;;;;;;;;;;;;;;;4971528;28;19914;-90
2023/09/09 01:20:43;;;;;;;;;;;;;;;;;;4974043;28;19984;-90
2023/09/09 01:23:09;;;;;;;;;;;;;;;;;;4971701;28;20361;-90
2023/09/09 01:25:35;;;;;;;;;;;;;;;;;;4984339;28;19960;-90
2023/09/09 01:28:01;;;;;;;;;;;;;;;;;;4996136;28;19922;-93
2023/09/09 01:30:27;;;;;;;;;;;;;;;;;;4973761;28;19914;-91
2023/09/09 01:32:53;;;;;;;;;;;;;;;;;;4973338;28;19966;-93
2023/09/09 01:35:19;;;;;;;;;;;;;;;;;;4979360;28;19913;-94
2023/09/09 01:37:45;;;;;;;;;;;;;;;;;;4977853;28;19920;-89
2023/09/09 01:40:12;;;;;;;;;;;;;;;;;;4970638;28;19913;-88
2023/09/09 01:42:38;;;;;;;;;;;;;;;;;;4978884;28;20388;-89
2023/09/09 01:45:04;;;;;;;;;;;;;;;;;;4970960;28;19918;-87
2023/09/09 01:47:30;;;;;;;;;;;;;;;;;;4975816;28;19922;-88
2023/09/09 01:49:56;;;;;;;;;;;;;;;;;;4974858;28;19921;-88
2023/09/09 01:52:22;;;;;;;;;;;;;;;;;;4974890;28;19918;-89
2023/09/09 01:54:48;;;;;;;;;;;;;;;;;;4971961;28;20358;-88
2023/09/09 01:57:16;;;;;;;;;;;;;;;;;;4978416;28;19945;-88
2023/09/09 01:59:42;;;;;;;;;;;;;;;;;;4977642;28;20409;-88
2023/09/09 02:02:08;;;;;;;;;;;;;;;;;;4977801;28;19918;-87
2023/09/09 02:04:34;;;;;;;;;;;;;;;;;;4974204;28;19918;-88
2023/09/09 02:07:00;;;;;;;;;;;;;;;;;;4971634;28;19921;-87
2023/09/09 02:09:26;;;;;;;;;;;;;;;;;;4972092;28;19910;-88
2023/09/09 02:11:51;;;;;;;;;;;;;;;;;;4988426;28;19921;-88
2023/09/09 02:14:17;;;;;;;;;;;;;;;;;;4971025;28;19914;-88
2023/09/09 02:16:43;;;;;;;;;;;;;;;;;;4976012;28;19955;-88
2023/09/09 02:19:09;;;;;;;;;;;;;;;;;;4971249;28;19930;-87
2023/09/09 02:21:35;;;;;;;;;;;;;;;;;;4974279;28;19913;-88
2023/09/09 02:24:02;;;;;;;;;;;;;;;;;;4976679;28;20429;-90
2023/09/09 02:26:28;;;;;;;;;;;;;;;;;;4971081;28;19929;-89
2023/09/09 02:28:54;;;;;;;;;;;;;;;;;;4985765;28;19926;-88
2023/09/09 02:31:20;;;;;;;;;;;;;;;;;;4973258;28;20258;-88
2023/09/09 02:33:46;;;;;;;;;;;;;;;;;;4966839;28;19914;-88
2023/09/09 02:36:12;;;;;;;;;;;;;;;;;;4985838;28;19964;-88
2023/09/09 02:38:38;;;;;;;;;;;;;;;;;;4985009;28;19968;-88
2023/09/09 02:41:04;;;;;;;;;;;;;;;;;;4988525;28;19953;-88
2023/09/09 02:43:30;;;;;;;;;;;;;;;;;;4982338;28;19968;-89
2023/09/09 02:45:56;;;;;;;;;;;;;;;;;;4978252;28;19914;-88
2023/09/09 02:48:21;;;;;;;;;;;;;;;;;;4974268;28;19918;-88
2023/09/09 02:50:47;;;;;;;;;;;;;;;;;;4984326;28;20402;-88
2023/09/09 02:53:13;;;;;;;;;;;;;;;;;;4967212;28;19921;-88
2023/09/09 02:55:39;;;;;;;;;;;;;;;;;;4986332;28;19914;-88
2023/09/09 02:58:06;;;;;;;;;;;;;;;;;;4977318;28;19921;-88
2023/09/09 03:00:32;;;;;;;;;;;;;;;;;;4970794;28;19929;-89
2023/09/09 03:02:58;;;;;;;;;;;;;;;;;;4979941;28;20371;-88
2023/09/09 03:05:24;;;;;;;;;;;;;;;;;;4977963;28;19933;-88
2023/09/09 03:07:50;;;;;;;;;;;;;;;;;;4985253;28;19918;-88
2023/09/09 03:10:16;;;;;;;;;;;;;;;;;;4978990;28;20362;-89
2023/09/09 03:12:42;;;;;;;;;;;;;;;;;;4969579;28;19920;-89
2023/09/09 03:15:08;;;;;;;;;;;;;;;;;;4976145;28;20691;-88
2023/09/09 03:17:34;;;;;;;;;;;;;;;;;;4980313;28;19986;-88
2023/09/09 03:20:00;;;;;;;;;;;;;;;;;;4973742;28;19917;-88
2023/09/09 03:22:26;;;;;;;;;;;;;;;;;;4979775;28;19918;-88
2023/09/09 03:24:52;;;;;;;;;;;;;;;;;;4968190;28;19918;-88
2023/09/09 03:27:18;;;;;;;;;;;;;;;;;;4977920;28;20620;-88
2023/09/09 03:29:44;;;;;;;;;;;;;;;;;;4987324;28;19963;-89
2023/09/09 03:32:10;;;;;;;;;;;;;;;;;;4988159;28;19948;-90
2023/09/09 03:34:36;;;;;;;;;;;;;;;;;;4975080;28;19920;-89
2023/09/09 03:37:02;;;;;;;;;;;;;;;;;;4974763;28;19937;-89
2023/09/09 03:39:28;;;;;;;;;;;;;;;;;;4976321;28;19976;-89
2023/09/09 03:41:54;;;;;;;;;;;;;;;;;;4973111;28;19918;-89
2023/09/09 03:44:20;;;;;;;;;;;;;;;;;;4969790;28;20283;-89
2023/09/09 03:46:46;;;;;;;;;;;;;;;;;;4981990;28;19917;-88
2023/09/09 03:49:12;;;;;;;;;;;;;;;;;;4969548;28;20394;-88
2023/09/09 03:51:38;;;;;;;;;;;;;;;;;;4976342;28;19925;-87
2023/09/09 03:54:05;;;;;;;;;;;;;;;;;;4968299;28;19972;-87
2023/09/09 03:56:31;;;;;;;;;;;;;;;;;;4989216;28;19917;-87
2023/09/09 03:58:57;;;;;;;;;;;;;;;;;;4974151;28;20134;-87
2023/09/09 04:01:22;;;;;;;;;;;;;;;;;;4978627;28;20285;-88
2023/09/09 04:03:48;;;;;;;;;;;;;;;;;;4976118;28;19924;-87
2023/09/09 04:06:17;;;;;;;;;;;;;;;;;;4990226;28;19922;-87
2023/09/09 04:08:43;;;;;;;;;;;;;;;;;;4979706;28;19922;-89
2023/09/09 04:11:08;;;;;;;;;;;;;;;;;;4974617;28;20290;-87
2023/09/09 04:13:38;;;;;;;;;;;;;;;;;;4974198;28;20417;-87
2023/09/09 04:16:03;;;;;;;;;;;;;;;;;;4992171;28;20405;-88
2023/09/09 04:18:29;;;;;;;;;;;;;;;;;;4974114;28;19914;-88
2023/09/09 04:20:55;;;;;;;;;;;;;;;;;;4977483;28;19918;-90
2023/09/09 04:23:22;;;;;;;;;;;;;;;;;;4991279;28;19918;-87
2023/09/09 04:25:48;;;;;;;;;;;;;;;;;;4978251;28;19972;-88
2023/09/09 04:28:14;;;;;;;;;;;;;;;;;;4978822;28;19930;-88
2023/09/09 04:30:40;;;;;;;;;;;;;;;;;;4981330;28;19917;-89
2023/09/09 04:33:06;;;;;;;;;;;;;;;;;;4974752;28;19917;-88
2023/09/09 04:35:32;;;;;;;;;;;;;;;;;;4975001;28;19920;-87
2023/09/09 04:37:58;;;;;;;;;;;;;;;;;;4977392;28;19921;-87
2023/09/09 04:40:24;;;;;;;;;;;;;;;;;;4980909;28;19915;-88
2023/09/09 04:42:50;;;;;;;;;;;;;;;;;;4978184;28;19918;-88
2023/09/09 04:45:16;;;;;;;;;;;;;;;;;;4997414;28;19918;-88
2023/09/09 04:47:42;;;;;;;;;;;;;;;;;;4978521;28;19918;-87
2023/09/09 04:50:08;;;;;;;;;;;;;;;;;;4980984;28;20045;-87
2023/09/09 04:52:34;;;;;;;;;;;;;;;;;;4971449;28;20000;-88
2023/09/09 04:55:00;;;;;;;;;;;;;;;;;;4973903;28;19930;-88
2023/09/09 04:57:26;;;;;;;;;;;;;;;;;;4989238;28;19913;-86
2023/09/09 04:59:54;;;;;;;;;;;;;;;;;;4977136;28;19924;-88
2023/09/09 05:02:20;;;;;;;;;;;;;;;;;;4987693;28;19914;-88
2023/09/09 05:04:46;;;;;;;;;;;;;;;;;;4973360;28;20009;-87
2023/09/09 05:07:12;;;;;;;;;;;;;;;;;;4976937;28;20234;-88
2023/09/09 05:09:38;;;;;;;;;;;;;;;;;;4982331;28;20353;-87
2023/09/09 05:12:04;;;;;;;;;;;;;;;;;;4974607;28;19918;-88
2023/09/09 05:14:36;;;;;;;;;;;;;;;;;;4977900;28;20032;-88
2023/09/09 05:17:02;;;;;;;;;;;;;;;;;;4972062;28;20369;-88
2023/09/09 05:19:28;;;;;;;;;;;;;;;;;;4970147;28;19965;-87
2023/09/09 05:21:54;;;;;;;;;;;;;;;;;;4974454;28;19910;-88
2023/09/09 05:24:20;;;;;;;;;;;;;;;;;;4988487;28;19917;-88
2023/09/09 05:26:46;;;;;;;;;;;;;;;;;;4974666;28;19919;-88
2023/09/09 05:29:12;;;;;;;;;;;;;;;;;;4976711;28;20279;-88
2023/09/09 05:31:38;;;;;;;;;;;;;;;;;;4990299;28;19915;-87
2023/09/09 05:34:04;;;;;;;;;;;;;;;;;;4971407;28;19918;-87
2023/09/09 05:36:30;;;;;;;;;;;;;;;;;;4965634;28;20448;-88
2023/09/09 05:38:59;;;;;;;;;;;;;;;;;;4975834;28;19962;-87
2023/09/09 05:41:25;;;;;;;;;;;;;;;;;;4975370;28;20362;-88
2023/09/09 05:43:51;;;;;;;;;;;;;;;;;;4972015;28;19917;-89
2023/09/09 05:46:17;;;;;;;;;;;;;;;;;;4973082;28;19989;-88
2023/09/09 05:48:43;;;;;;;;;;;;;;;;;;4978447;28;19918;-88
2023/09/09 05:51:09;;;;;;;;;;;;;;;;;;4978417;28;20006;-88
2023/09/09 05:53:35;;;;;;;;;;;;;;;;;;4973297;28;19922;-88
2023/09/09 05:56:01;;;;;;;;;;;;;;;;;;4971241;28;19914;-88
2023/09/09 05:58:27;;;;;;;;;;;;;;;;;;4989881;28;19933;-88
2023/09/09 06:00:53;;;;;;;;;;;;;;;;;;4971647;28;19922;-89
2023/09/09 06:03:19;;;;;;;;;;;;;;;;;;4966210;28;19926;-88
2023/09/09 06:05:45;;;;;;;;;;;;;;;;;;4969290;28;19914;-88
2023/09/09 06:08:12;;;;;;;;;;;;;;;;;;4970775;28;19941;-89
2023/09/09 06:10:38;;;;;;;;;;;;;;;;;;4975572;28;19918;-88
2023/09/09 06:13:04;;;;;;;;;;;;;;;;;;4971469;28;20008;-89
2023/09/09 06:15:30;;;;;;;;;;;;;;;;;;4976102;28;20528;-88
2023/09/09 06:18:00;;;;;;;;;;;;;;;;;;4976878;28;19949;-90
2023/09/09 06:20:26;;;;;;;;;;;;;;;;;;4976335;28;19928;-90
2023/09/09 06:22:51;;;;;;;;;;;;;;;;;;4969122;28;19917;-90
2023/09/09 06:25:27;;;;;;;;;;;;;;;;;;4979177;28;19933;-90
2023/09/09 06:27:53;;;;;;;;;;;;;;;;;;4981212;28;20366;-90
2023/09/09 06:30:27;;;;;;;;;;;;;;;;;;4976790;28;22461;-89
2023/09/09 06:32:53;;;;;;;;;;;;;;;;;;4977437;28;19995;-90
2023/09/09 06:35:19;;;;;;;;;;;;;;;;;;4977127;28;19922;-89
2023/09/09 06:37:45;;;;;;;;;;;;;;;;;;4974575;28;19920;-88
2023/09/09 06:40:11;;;;;;;;;;;;;;;;;;4988197;28;20227;-90
2023/09/09 06:42:37;;;;;;;;;;;;;;;;;;4970943;28;19941;-90
2023/09/09 06:45:04;;;;;;;;;;;;;;;;;;4974474;28;19917;-90
2023/09/09 06:47:30;;;;;;;;;;;;;;;;;;4972229;28;19921;-90
2023/09/09 06:49:55;;;;;;;;;;;;;;;;;;4974541;28;19920;-90
2023/09/09 06:52:21;;;;;;;;;;;;;;;;;;4972909;28;19926;-90
2023/09/09 06:54:47;;;;;;;;;;;;;;;;;;4968464;28;19945;-90
2023/09/09 06:57:13;;;;;;;;;;;;;;;;;;4970695;28;19960;-90
2023/09/09 06:59:44;;;;;;;;;;;;;;;;;;4965691;28;20459;-90
2023/09/09 07:02:10;;;;;;;;;;;;;;;;;;4975337;28;19918;-90
2023/09/09 07:04:37;;;;;;;;;;;;;;;;;;4974610;28;20476;-91
2023/09/09 07:07:03;;;;;;;;;;;;;;;;;;4997254;28;20583;-90
2023/09/09 07:09:29;;;;;;;;;;;;;;;;;;4977916;28;19937;-90
2023/09/09 07:11:54;;;;;;;;;;;;;;;;;;4976087;28;19922;-89
2023/09/09 07:14:20;;;;;;;;;;;;;;;;;;4976469;28;19941;-89
2023/09/09 07:16:46;;;;;;;;;;;;;;;;;;4970952;28;19925;-90
2023/09/09 07:19:12;;;;;;;;;;;;;;;;;;4977800;28;20373;-90
2023/09/09 07:21:38;;;;;;;;;;;;;;;;;;4988111;28;19946;-90
2023/09/09 07:24:04;;;;;;;;;;;;;;;;;;4969322;28;19983;-90
2023/09/09 07:26:30;;;;;;;;;;;;;;;;;;4986675;28;19921;-87
2023/09/09 07:28:57;;;;;;;;;;;;;;;;;;4969420;28;20417;-89
2023/09/09 07:31:23;;;;;;;;;;;;;;;;;;4974632;28;20311;-88
2023/09/09 07:33:53;;;;;;;;;;;;;;;;;;4974171;28;20420;-87
2023/09/09 07:36:19;;;;;;;;;;;;;;;;;;4963980;28;19918;-88
2023/09/09 07:38:45;;;;;;;;;;;;;;;;;;4973871;28;20009;-88
2023/09/09 07:41:14;;;;;;;;;;;;;;;;;;4986288;28;20032;-88
2023/09/09 07:43:40;;;;;;;;;;;;;;;;;;4970618;28;19918;-88
2023/09/09 07:46:06;;;;;;;;;;;;;;;;;;4967334;28;19925;-89
2023/09/09 07:48:32;;;;;;;;;;;;;;;;;;4971193;28;19918;-88
2023/09/09 07:50:59;;;;;;;;;;;;;;;;;;4968806;28;20434;-89
2023/09/09 07:53:25;;;;;;;;;;;;;;;;;;4986312;28;19917;-88
2023/09/09 07:55:51;;;;;;;;;;;;;;;;;;4974222;28;19914;-88
2023/09/09 07:58:17;;;;;;;;;;;;;;;;;;4979781;28;20021;-88
2023/09/09 08:00:43;;;;;;;;;;;;;;;;;;4989305;28;19918;-89
2023/09/09 08:03:10;;;;;;;;;;;;;;;;;;4969585;28;19922;-88
2023/09/09 08:05:36;;;;;;;;;;;;;;;;;;4971346;28;19918;-88
2023/09/09 08:08:02;;;;;;;;;;;;;;;;;;4970589;28;20692;-90
2023/09/09 08:10:28;;;;;;;;;;;;;;;;;;4984190;28;19914;-88
2023/09/09 08:12:54;;;;;;;;;;;;;;;;;;4971947;28;19968;-88
2023/09/09 08:15:21;;;;;;;;;;;;;;;;;;4993349;28;19920;-88
2023/09/09 08:17:47;;;;;;;;;;;;;;;;;;4974966;28;19922;-88
2023/09/09 08:20:13;;;;;;;;;;;;;;;;;;4974270;28;19920;-88
2023/09/09 08:22:39;;;;;;;;;;;;;;;;;;4980555;28;19929;-87
2023/09/09 08:25:05;;;;;;;;;;;;;;;;;;4974295;28;19914;-89
2023/09/09 08:27:31;;;;;;;;;;;;;;;;;;4978004;28;19918;-89
2023/09/09 08:29:57;;;;;;;;;;;;;;;;;;4973345;28;20370;-89
2023/09/09 08:32:23;;;;;;;;;;;;;;;;;;4988606;28;19917;-87
2023/09/09 08:34:49;;;;;;;;;;;;;;;;;;4970357;28;19976;-88
2023/09/09 08:37:15;;;;;;;;;;;;;;;;;;4975468;28;19914;-94
2023/09/09 08:39:41;;;;;;;;;;;;;;;;;;4977811;28;20049;-93
2023/09/09 08:42:06;;;;;;;;;;;;;;;;;;4979206;28;20285;-93
2023/09/09 08:44:32;;;;;;;;;;;;;;;;;;4978634;28;19920;-93
2023/09/09 08:47:02;;;;;;;;;;;;;;;;;;4978116;28;19949;-93
2023/09/09 08:49:28;;;;;;;;;;;;;;;;;;4980628;28;19921;-92
2023/09/09 08:51:54;;;;;;;;;;;;;;;;;;4978369;28;20275;-93
2023/09/09 08:54:20;;;;;;;;;;;;;;;;;;4974962;28;19961;-91
2023/09/09 08:56:46;;;;;;;;;;;;;;;;;;4982490;28;19967;-93
2023/09/09 08:59:12;;;;;;;;;;;;;;;;;;4973649;28;19910;-92
2023/09/09 09:01:38;;;;;;;;;;;;;;;;;;4971030;28;20297;-93
2023/09/09 09:04:04;;;;;;;;;;;;;;;;;;4973423;28;19918;-93
2023/09/09 09:06:33;;;;;;;;;;;;;;;;;;4967669;28;19937;-94
2023/09/09 09:08:59;;;;;;;;;;;;;;;;;;4979948;28;19917;-95
2023/09/09 09:11:25;;;;;;;;;;;;;;;;;;4977376;28;19914;-94
2023/09/09 09:13:51;;;;;;;;;;;;;;;;;;4978340;28;20051;-94
2023/09/09 09:16:18;;;;;;;;;;;;;;;;;;4986916;28;20320;-94
2023/09/09 09:18:44;;;;;;;;;;;;;;;;;;4980052;28;19918;-95
2023/09/09 09:21:10;;;;;;;;;;;;;;;;;;4980376;28;19914;-93
2023/09/09 09:23:36;;;;;;;;;;;;;;;;;;4978436;28;19918;-93
2023/09/09 09:26:05;;;;;;;;;;;;;;;;;;4978693;28;19918;-93
2023/09/09 09:31:17;;;;;;;;;;;;;;;;;;4984287;28;20377;-91
2023/09/09 09:33:44;;;;;;;;;;;;;;;;;;4982613;28;19921;-93
2023/09/09 09:36:10;;;;;;;;;;;;;;;;;;4982119;28;19953;-90
2023/09/09 09:38:36;;;;;;;;;;;;;;;;;;4977671;28;19929;-94
2023/09/09 09:41:02;;;;;;;;;;;;;;;;;;4981059;28;19921;-94
2023/09/09 09:43:49;;;;;;;;;;;;;;;;;;4966726;28;19913;-92
2023/09/09 09:46:17;;;;;;;;;;;;;;;;;;4992831;28;19918;-93
2023/09/09 09:48:43;;;;;;;;;;;;;;;;;;4977128;28;20373;-93
2023/09/09 09:51:08;;;;;;;;;;;;;;;;;;4977561;28;19924;-93
2023/09/09 09:53:44;;;;;;;;;;;;;;;;;;4973751;28;19922;-93
2023/09/09 09:56:13;;;;;;;;;;;;;;;;;;4973302;28;19928;-93
2023/09/09 09:58:39;;;;;;;;;;;;;;;;;;4978689;28;19968;-91
2023/09/09 10:01:06;;;;;;;;;;;;;;;;;;4974629;28;20365;-94
2023/09/09 10:03:33;;;;;;;;;;;;;;;;;;4985134;28;19914;-92
2023/09/09 10:05:59;;;;;;;;;;;;;;;;;;4977946;28;19918;-93
2023/09/09 10:08:25;;;;;;;;;;;;;;;;;;4974590;28;20020;-92
2023/09/09 10:10:57;;;;;;;;;;;;;;;;;;4983709;28;19914;-93
2023/09/09 10:13:23;;;;;;;;;;;;;;;;;;4978653;28;19918;-91
2023/09/09 10:15:49;;;;;;;;;;;;;;;;;;4989306;28;19940;-94
2023/09/09 10:18:15;;;;;;;;;;;;;;;;;;4980573;28;19922;-93
2023/09/09 10:20:41;;;;;;;;;;;;;;;;;;4985316;28;19994;-94
2023/09/09 10:23:07;;;;;;;;;;;;;;;;;;4983643;28;19918;-93
2023/09/09 10:25:33;;;;;;;;;;;;;;;;;;4983232;28;19953;-91
2023/09/09 10:28:09;;;;;;;;;;;;;;;;;;4987806;28;20286;-92
2023/09/09 10:30:35;;;;;;;;;;;;;;;;;;4987237;28;20382;-91
2023/09/09 10:33:06;;;;;;;;;;;;;;;;;;4995405;28;19921;-94
2023/09/09 10:35:32;;;;;;;;;;;;;;;;;;4988447;28;19928;-95
2023/09/09 10:37:58;;;;;;;;;;;;;;;;;;4984956;28;19914;-93
2023/09/09 10:40:24;;;;;;;;;;;;;;;;;;4987104;28;19921;-94
2023/09/09 10:42:51;;;;;;;;;;;;;;;;;;4994715;28;19925;-94
2023/09/09 10:45:24;;;;;;;;;;;;;;;;;;4982164;28;19914;-93
2023/09/09 10:47:49;;;;;;;;;;;;;;;;;;5002778;28;19928;-95
2023/09/09 10:50:15;;;;;;;;;;;;;;;;;;4982326;28;19973;-93
2023/09/09 10:52:41;;;;;;;;;;;;;;;;;;4982807;28;19913;-94
2023/09/09 10:55:07;;;;;;;;;;;;;;;;;;4973597;28;19964;-92
2023/09/09 10:57:34;;;;;;;;;;;;;;;;;;4981345;28;19918;-89
2023/09/09 11:00:00;;;;;;;;;;;;;;;;;;4978741;28;20393;-88
2023/09/09 11:02:26;;;;;;;;;;;;;;;;;;4990922;28;19914;-89
2023/09/09 11:04:51;;;;;;;;;;;;;;;;;;4978898;28;19980;-88
2023/09/09 11:07:21;;;;;;;;;;;;;;;;;;4976403;28;19922;-89
2023/09/09 11:09:46;;;;;;;;;;;;;;;;;;4983619;28;20258;-88
2023/09/09 11:12:13;;;;;;;;;;;;;;;;;;4977698;28;19940;-87
2023/09/09 11:14:39;;;;;;;;;;;;;;;;;;4973904;28;19913;-88
2023/09/09 11:17:05;;;;;;;;;;;;;;;;;;4974030;28;20298;-88
2023/09/09 11:19:31;;;;;;;;;;;;;;;;;;4981475;28;19920;-89
2023/09/09 11:21:56;;;;;;;;;;;;;;;;;;4973784;28;19944;-88
2023/09/09 11:24:23;;;;;;;;;;;;;;;;;;4973777;28;19914;-90
2023/09/09 11:26:49;;;;;;;;;;;;;;;;;;4988698;28;19933;-89
2023/09/09 11:29:15;;;;;;;;;;;;;;;;;;4973996;28;20397;-91
2023/09/09 11:31:41;;;;;;;;;;;;;;;;;;4974687;28;19921;-88
2023/09/09 11:34:07;;;;;;;;;;;;;;;;;;4966635;28;19918;-89
2023/09/09 11:36:33;;;;;;;;;;;;;;;;;;4977399;28;19917;-90
2023/09/09 11:38:59;;;;;;;;;;;;;;;;;;4976919;28;19914;-89
2023/09/09 11:41:47;;;;;;;;;;;;;;;;;;4979963;28;19929;-89
2023/09/09 11:44:12;;;;;;;;;;;;;;;;;;4987951;28;19909;-89
2023/09/09 11:46:38;;;;;;;;;;;;;;;;;;4976442;28;20069;-88
2023/09/09 11:49:04;;;;;;;;;;;;;;;;;;4975098;28;19920;-89
2023/09/09 11:51:30;;;;;;;;;;;;;;;;;;4974621;28;20381;-89
2023/09/09 11:53:56;;;;;;;;;;;;;;;;;;4977549;28;19950;-90
2023/09/09 11:56:23;;;;;;;;;;;;;;;;;;4970205;28;19921;-90
2023/09/09 11:58:50;;;;;;;;;;;;;;;;;;4976187;28;20548;-90
2023/09/09 12:01:16;;;;;;;;;;;;;;;;;;4988580;28;19910;-90
2023/09/09 12:03:42;;;;;;;;;;;;;;;;;;4975053;28;19917;-90
2023/09/09 12:06:08;;;;;;;;;;;;;;;;;;4977031;28;19918;-88
2023/09/09 12:08:34;;;;;;;;;;;;;;;;;;4977537;28;19914;-89
2023/09/09 12:11:00;;;;;;;;;;;;;;;;;;4975434;28;19957;-89
2023/09/09 12:13:26;;;;;;;;;;;;;;;;;;4975265;28;20000;-90
2023/09/09 12:15:52;;;;;;;;;;;;;;;;;;4973981;28;19949;-89
2023/09/09 12:18:21;;;;;;;;;;;;;;;;;;4976822;28;19917;-89
2023/09/09 12:20:47;;;;;;;;;;;;;;;;;;4978993;28;19917;-89
2023/09/09 12:23:13;;;;;;;;;;;;;;;;;;4982033;28;19914;-91
2023/09/09 12:25:39;;;;;;;;;;;;;;;;;;4973741;28;19992;-90
2023/09/09 12:28:14;;;;;;;;;;;;;;;;;;4979168;28;19940;-90
2023/09/09 12:30:43;;;;;;;;;;;;;;;;;;4992431;28;19988;-89
2023/09/09 12:33:10;;;;;;;;;;;;;;;;;;4975451;28;19918;-89
2023/09/09 12:35:36;;;;;;;;;;;;;;;;;;4974827;28;19925;-88
2023/09/09 12:38:02;;;;;;;;;;;;;;;;;;4977913;28;19917;-88
2023/09/09 12:40:28;;;;;;;;;;;;;;;;;;4978997;28;19914;-87
2023/09/09 12:42:57;;;;;;;;;;;;;;;;;;4970928;28;19921;-88
2023/09/09 12:45:23;;;;;;;;;;;;;;;;;;4977298;28;20402;-89
2023/09/09 12:47:49;;;;;;;;;;;;;;;;;;4977729;28;20020;-89
2023/09/09 12:50:14;;;;;;;;;;;;;;;;;;4979336;28;19928;-90
2023/09/09 12:52:40;;;;;;;;;;;;;;;;;;4975939;28;20389;-89
2023/09/09 12:55:06;;;;;;;;;;;;;;;;;;4979147;28;19928;-90
2023/09/09 12:57:32;;;;;;;;;;;;;;;;;;4969385;28;20396;-90
2023/09/09 12:59:58;;;;;;;;;;;;;;;;;;4971739;28;19918;-90
2023/09/09 13:02:25;;;;;;;;;;;;;;;;;;4973704;28;19910;-89
2023/09/09 13:04:50;;;;;;;;;;;;;;;;;;4985010;28;19922;-90
2023/09/09 13:07:16;;;;;;;;;;;;;;;;;;4969196;28;19918;-89
2023/09/09 13:09:42;;;;;;;;;;;;;;;;;;4976414;28;19914;-90
2023/09/09 13:12:08;;;;;;;;;;;;;;;;;;4973512;28;20333;-90
2023/09/09 13:14:34;;;;;;;;;;;;;;;;;;4978715;28;19913;-90
2023/09/09 13:17:03;;;;;;;;;;;;;;;;;;4982265;28;19917;-88
2023/09/09 13:19:29;;;;;;;;;;;;;;;;;;4982598;28;19941;-88
2023/09/09 13:21:55;;;;;;;;;;;;;;;;;;4981938;28;19964;-88
2023/09/09 13:24:21;;;;;;;;;;;;;;;;;;4979625;28;20000;-88
2023/09/09 13:26:47;;;;;;;;;;;;;;;;;;4995426;28;19922;-89
2023/09/09 13:29:13;;;;;;;;;;;;;;;;;;4989580;28;19971;-89
2023/09/09 13:31:39;;;;;;;;;;;;;;;;;;4980937;28;19914;-90
2023/09/09 13:34:05;;;;;;;;;;;;;;;;;;4969010;28;19965;-89
2023/09/09 13:36:31;;;;;;;;;;;;;;;;;;4982511;28;19918;-89
2023/09/09 13:38:57;;;;;;;;;;;;;;;;;;4982220;28;19925;-89
2023/09/09 13:41:26;;;;;;;;;;;;;;;;;;4979828;28;19924;-89
2023/09/09 13:43:52;;;;;;;;;;;;;;;;;;4981753;28;19918;-89
2023/09/09 13:46:18;;;;;;;;;;;;;;;;;;4981233;28;19971;-89
2023/09/09 13:48:47;;;;;;;;;;;;;;;;;;4983367;28;19944;-89
2023/09/09 13:51:13;;;;;;;;;;;;;;;;;;4986313;28;20000;-90
2023/09/09 13:53:39;;;;;;;;;;;;;;;;;;4979453;28;19992;-89
2023/09/09 13:56:04;;;;;;;;;;;;;;;;;;4980929;28;20333;-89
2023/09/09 13:58:30;;;;;;;;;;;;;;;;;;4981457;28;19995;-89
2023/09/09 14:00:57;;;;;;;;;;;;;;;;;;4974115;28;19945;-89
2023/09/09 14:03:23;;;;;;;;;;;;;;;;;;4976374;28;19918;-90
2023/09/09 14:05:49;;;;;;;;;;;;;;;;;;4976151;28;19914;-90
2023/09/09 14:08:15;;;;;;;;;;;;;;;;;;4977619;28;19925;-89
2023/09/09 14:10:41;;;;;;;;;;;;;;;;;;4974084;28;19914;-89
2023/09/09 14:13:07;;;;;;;;;;;;;;;;;;4965446;28;19918;-89
2023/09/09 14:15:33;;;;;;;;;;;;;;;;;;4978346;28;19917;-90
2023/09/09 14:17:59;;;;;;;;;;;;;;;;;;4965269;28;19952;-89
2023/09/09 14:20:34;;;;;;;;;;;;;;;;;;4977789;28;19914;-90
2023/09/09 14:23:00;;;;;;;;;;;;;;;;;;4994979;28;19972;-88
2023/09/09 14:25:26;;;;;;;;;;;;;;;;;;4975387;28;19918;-88
2023/09/09 14:27:52;;;;;;;;;;;;;;;;;;4981047;28;19936;-93
2023/09/09 14:30:18;;;;;;;;;;;;;;;;;;4977217;28;19926;-92
2023/09/09 14:32:44;;;;;;;;;;;;;;;;;;4979052;28;19932;-93
2023/09/09 14:35:09;;;;;;;;;;;;;;;;;;4979986;28;20007;-93
2023/09/09 14:37:36;;;;;;;;;;;;;;;;;;4975397;28;19922;-88
2023/09/09 14:40:03;;;;;;;;;;;;;;;;;;4975926;28;19920;-88
2023/09/09 14:42:29;;;;;;;;;;;;;;;;;;4981996;28;20386;-88
2023/09/09 14:44:55;;;;;;;;;;;;;;;;;;4969987;28;20154;-87
2023/09/09 14:47:20;;;;;;;;;;;;;;;;;;4977396;28;19972;-88
2023/09/09 14:49:46;;;;;;;;;;;;;;;;;;4976601;28;19914;-89
2023/09/09 14:52:12;;;;;;;;;;;;;;;;;;4970778;28;20628;-88
2023/09/09 14:54:38;;;;;;;;;;;;;;;;;;4979597;28;19913;-87
2023/09/09 14:57:04;;;;;;;;;;;;;;;;;;4967673;28;19917;-87
2023/09/09 14:59:31;;;;;;;;;;;;;;;;;;4999031;28;20008;-88
2023/09/09 15:01:56;;;;;;;;;;;;;;;;;;4969359;28;19952;-88
2023/09/09 15:04:23;;;;;;;;;;;;;;;;;;4979453;28;20344;-88
2023/09/09 15:06:49;;;;;;;;;;;;;;;;;;4988949;28;19948;-89
2023/09/09 15:09:15;;;;;;;;;;;;;;;;;;4969517;28;20425;-89
2023/09/09 15:11:41;;;;;;;;;;;;;;;;;;4984918;28;19914;-89
2023/09/09 15:14:07;;;;;;;;;;;;;;;;;;4968762;28;19918;-87
2023/09/09 15:16:33;;;;;;;;;;;;;;;;;;4974527;28;20128;-88
2023/09/09 15:18:59;;;;;;;;;;;;;;;;;;4973483;28;19991;-87
2023/09/09 15:21:25;;;;;;;;;;;;;;;;;;4975412;28;19944;-89
2023/09/09 15:23:51;;;;;;;;;;;;;;;;;;4977601;28;20423;-88
2023/09/09 15:26:16;;;;;;;;;;;;;;;;;;4969834;28;19968;-89
2023/09/09 15:28:42;;;;;;;;;;;;;;;;;;4974157;28;19983;-90
2023/09/09 15:31:08;;;;;;;;;;;;;;;;;;4978638;28;19928;-88
2023/09/09 15:33:34;;;;;;;;;;;;;;;;;;4990828;28;19920;-88
2023/09/09 15:36:00;;;;;;;;;;;;;;;;;;4976423;28;19922;-90
2023/09/09 15:38:27;;;;;;;;;;;;;;;;;;4974107;28;19992;-89
2023/09/09 15:40:53;;;;;;;;;;;;;;;;;;4985259;28;19915;-89
2023/09/09 15:43:19;;;;;;;;;;;;;;;;;;4979912;28;19921;-88
2023/09/09 15:45:45;;;;;;;;;;;;;;;;;;4976290;28;19918;-89
2023/09/09 15:48:14;;;;;;;;;;;;;;;;;;4976373;28;19922;-90
2023/09/09 15:50:41;;;;;;;;;;;;;;;;;;4966479;28;19918;-89
2023/09/09 15:53:07;;;;;;;;;;;;;;;;;;4977853;28;19976;-90
2023/09/09 15:55:32;;;;;;;;;;;;;;;;;;4973926;28;19922;-91
2023/09/09 15:57:58;;;;;;;;;;;;;;;;;;4987602;28;19924;-88
2023/09/09 16:00:25;;;;;;;;;;;;;;;;;;4982884;28;19941;-89
2023/09/09 16:02:51;;;;;;;;;;;;;;;;;;4977948;28;19922;-89
2023/09/09 16:05:17;;;;;;;;;;;;;;;;;;4981605;28;19995;-88
2023/09/09 16:07:43;;;;;;;;;;;;;;;;;;4974943;28;19929;-88
2023/09/09 16:10:09;;;;;;;;;;;;;;;;;;4978824;28;19917;-87
2023/09/09 16:12:35;;;;;;;;;;;;;;;;;;4988418;28;20358;-91
2023/09/09 16:15:01;;;;;;;;;;;;;;;;;;4968880;28;19917;-88
2023/09/09 16:17:28;;;;;;;;;;;;;;;;;;4982865;28;19914;-88
2023/09/09 16:19:54;;;;;;;;;;;;;;;;;;4979611;28;19925;-88
2023/09/09 16:22:21;;;;;;;;;;;;;;;;;;4977182;28;19921;-87
2023/09/09 16:24:53;;;;;;;;;;;;;;;;;;4975225;28;19913;-88
2023/09/09 16:27:19;;;;;;;;;;;;;;;;;;4979609;28;20370;-88
2023/09/09 16:29:46;;;;;;;;;;;;;;;;;;4977406;28;19922;-87
2023/09/09 16:32:12;;;;;;;;;;;;;;;;;;4972329;28;19924;-88
2023/09/09 16:34:38;;;;;;;;;;;;;;;;;;4982795;28;19988;-89
2023/09/09 16:37:04;;;;;;;;;;;;;;;;;;4975987;28;19922;-88
2023/09/09 16:39:30;;;;;;;;;;;;;;;;;;4976164;28;19922;-89
2023/09/09 16:41:56;;;;;;;;;;;;;;;;;;4977843;28;19926;-88